Time;durP1;ratioP1;P1;durP2;ratioP2;P2;SDS_P1;SDS_P2;PMS_P1;PMS_P2;Temp;Humidity;BMP_temperature;BMP_pressure;BME280_temperature;BME280_humidity;BME280_pressure;Samples;Min_cycle;Max_cycle;Signal;HPM_P1;HPM_P2
2023/02/01 00:02:00;;;;;;;38.53;3.40;;;7.00;99.90;;;;;;5012225;28;20185;-69
2023/02/01 00:04:26;;;;;;;25.80;4.00;;;7.20;99.90;;;;;;5011884;28;20056;-69
2023/02/01 00:06:52;;;;;;;32.10;5.38;;;7.10;99.90;;;;;;5011866;28;20026;-69
2023/02/01 00:09:18;;;;;;;18.55;2.80;;;7.10;99.90;;;;;;5012371;28;20029;-69
2023/02/01 00:11:43;;;;;;;28.08;3.75;;;7.10;99.90;;;;;;5011772;28;20064;-68
2023/02/01 00:14:09;;;;;;;20.27;3.33;;;7.10;99.90;;;;;;5011782;28;20038;-69
2023/02/01 00:16:35;;;;;;;23.90;3.83;;;7.10;99.90;;;;;;5011796;28;20456;-69
2023/02/01 00:19:13;;;;;;;26.23;3.25;;;7.10;99.90;;;;;;5011810;28;20029;-68
2023/02/01 00:21:38;;;;;;;33.55;4.00;;;7.20;99.90;;;;;;5012195;28;20021;-69
2023/02/01 00:24:05;;;;;;;23.77;3.22;;;7.20;99.90;;;;;;5011434;28;20133;-69
2023/02/01 00:26:35;;;;;;;29.27;4.05;;;7.20;99.90;;;;;;5010525;28;20381;-67
2023/02/01 00:29:03;;;;;;;28.42;3.47;;;7.20;99.90;;;;;;5011554;28;20042;-68
2023/02/01 00:31:28;;;;;;;25.83;3.30;;;7.20;99.90;;;;;;5011523;28;20022;-68
2023/02/01 00:33:54;;;;;;;21.67;2.90;;;7.20;99.90;;;;;;5011366;28;20032;-68
2023/02/01 00:36:20;;;;;;;28.92;3.22;;;7.20;99.90;;;;;;5010822;28;20017;-68
2023/02/01 00:38:45;;;;;;;31.92;3.00;;;7.10;99.90;;;;;;5011444;28;20050;-68
2023/02/01 00:41:13;;;;;;;30.17;3.53;;;7.00;99.90;;;;;;5011648;28;20196;-68
2023/02/01 00:43:40;;;;;;;22.83;3.60;;;7.00;99.90;;;;;;5011407;28;20044;-68
2023/02/01 00:46:06;;;;;;;27.98;4.28;;;7.00;99.90;;;;;;5011118;28;20026;-68
2023/02/01 00:48:32;;;;;;;22.30;2.67;;;7.10;99.90;;;;;;5012000;28;20028;-69
2023/02/01 00:51:02;;;;;;;27.33;3.67;;;7.10;99.90;;;;;;5010091;28;20133;-69
2023/02/01 00:53:29;;;;;;;24.85;3.72;;;7.20;99.90;;;;;;5011161;28;20105;-69
2023/02/01 00:55:54;;;;;;;27.50;3.80;;;7.50;99.90;;;;;;5011100;28;20041;-68
2023/02/01 00:58:20;;;;;;;19.08;3.35;;;7.10;99.90;;;;;;5011162;28;20022;-69
2023/02/01 01:00:46;;;;;;;47.95;6.20;;;7.00;99.90;;;;;;5011715;28;20468;-69
2023/02/01 01:03:18;;;;;;;21.98;3.08;;;7.10;99.90;;;;;;5011072;28;20036;-68
2023/02/01 01:05:45;;;;;;;20.90;3.40;;;7.30;99.90;;;;;;5009748;28;20030;-68
2023/02/01 01:08:11;;;;;;;13.57;3.58;;;7.10;99.90;;;;;;5010740;28;20030;-68
2023/02/01 01:10:37;;;;;;;30.88;4.15;;;7.00;99.90;;;;;;5010475;28;20439;-69
2023/02/01 01:13:02;;;;;;;23.65;3.33;;;7.00;99.90;;;;;;5010975;28;20026;-68
2023/02/01 01:15:28;;;;;;;33.67;3.65;;;7.00;99.90;;;;;;5011127;28;20041;-68
2023/02/01 01:17:54;;;;;;;37.33;3.72;;;7.10;99.90;;;;;;5010768;28;20030;-69
2023/02/01 01:20:21;;;;;;;20.10;3.00;;;7.10;99.90;;;;;;5010802;28;20121;-70
2023/02/01 01:22:47;;;;;;;27.67;3.53;;;7.30;99.90;;;;;;5009492;28;20117;-68
2023/02/01 01:25:13;;;;;;;20.77;3.03;;;7.20;99.90;;;;;;5010582;28;20251;-68
2023/02/01 01:27:39;;;;;;;26.95;3.03;;;7.00;99.90;;;;;;5010683;28;20125;-68
2023/02/01 01:30:06;;;;;;;22.15;3.88;;;7.00;99.90;;;;;;5010776;28;20116;-68
2023/02/01 01:32:31;;;;;;;19.35;3.05;;;7.00;99.90;;;;;;5010672;28;20022;-69
2023/02/01 01:34:57;;;;;;;26.58;3.80;;;7.00;99.90;;;;;;5010505;28;20474;-68
2023/02/01 01:37:23;;;;;;;20.90;3.45;;;7.00;99.90;;;;;;5010551;28;20030;-69
2023/02/01 01:39:48;;;;;;;29.00;3.72;;;6.90;99.90;;;;;;5009992;28;20109;-69
2023/02/01 01:42:14;;;;;;;20.70;3.63;;;7.00;99.90;;;;;;5010771;28;20054;-68
2023/02/01 01:44:54;;;;;;;24.58;4.00;;;7.00;99.90;;;;;;5010548;28;20510;-68
2023/02/01 01:47:20;;;;;;;21.70;3.63;;;7.00;99.90;;;;;;5010471;28;20057;-68
2023/02/01 01:49:46;;;;;;;21.27;2.95;;;6.90;99.90;;;;;;5010422;28;20535;-68
2023/02/01 01:52:12;;;;;;;29.83;4.82;;;7.00;99.90;;;;;;5010358;28;20034;-68
2023/02/01 01:54:42;;;;;;;29.67;3.58;;;7.00;99.90;;;;;;5010732;28;20029;-69
2023/02/01 01:57:16;;;;;;;20.38;2.95;;;7.10;99.90;;;;;;5010149;28;20487;-69
2023/02/01 01:59:47;;;;;;;30.92;4.63;;;7.00;99.90;;;;;;5010174;28;20030;-69
2023/02/01 02:02:13;;;;;;;31.08;3.75;;;7.00;99.90;;;;;;5009240;28;20349;-69
2023/02/01 02:04:39;;;;;;;28.30;3.63;;;7.00;99.90;;;;;;5010226;28;20048;-69
2023/02/01 02:07:11;;;;;;;21.65;3.90;;;7.10;99.90;;;;;;5009246;28;20084;-68
2023/02/01 02:09:37;;;;;;;22.95;3.00;;;7.10;99.90;;;;;;5010518;28;20026;-69
2023/02/01 02:12:03;;;;;;;29.30;3.13;;;7.10;99.90;;;;;;5010193;28;20369;-70
2023/02/01 02:14:29;;;;;;;25.65;3.20;;;7.20;99.90;;;;;;5010107;28;20026;-69
2023/02/01 02:17:23;;;;;;;21.00;4.05;;;7.20;99.90;;;;;;5010184;28;20042;-68
2023/02/01 02:20:19;;;;;;;23.23;3.28;;;7.00;99.90;;;;;;5010203;28;20034;-68
2023/02/01 02:22:54;;;;;;;32.13;3.60;;;7.00;99.90;;;;;;5010128;28;20091;-68
2023/02/01 02:25:50;;;;;;;21.15;2.92;;;7.10;99.90;;;;;;5010022;28;20037;-69
2023/02/01 02:28:54;;;;;;;17.53;2.83;;;7.20;99.90;;;;;;5009357;28;20049;-69
2023/02/01 02:31:55;;;;;;;24.70;2.58;;;7.20;99.90;;;;;;5010051;28;20419;-68
2023/02/01 02:34:57;;;;;;;19.05;2.78;;;7.20;99.90;;;;;;5009959;28;20516;-68
2023/02/01 02:37:36;;;;;;;24.60;3.42;;;7.20;99.80;;;;;;4990437;28;20071;-68
2023/02/01 02:40:08;;;;;;;20.80;2.90;;;7.30;99.70;;;;;;4990497;28;20022;-68
2023/02/01 02:48:52;;;;;;;27.85;3.72;;;7.20;99.90;;;;;;4990275;28;20145;-67
2023/02/01 02:54:47;;;;;;;24.42;3.40;;;7.30;99.80;;;;;;4993635;28;20042;-68
2023/02/01 03:05:50;;;;;;;22.38;3.65;;;7.10;99.50;;;;;;4993311;28;20193;-68
2023/02/01 03:08:27;;;;;;;22.80;3.23;;;7.20;99.50;;;;;;4993194;28;20046;-70
2023/02/01 03:11:14;;;;;;;25.13;3.40;;;7.30;99.50;;;;;;4993696;28;20452;-69
2023/02/01 03:13:54;;;;;;;20.33;3.22;;;7.30;99.50;;;;;;4993285;28;20031;-69
2023/02/01 03:16:27;;;;;;;22.55;2.65;;;7.40;99.50;;;;;;4993289;28;20050;-69
2023/02/01 03:18:59;;;;;;;24.73;3.80;;;7.30;99.40;;;;;;4993264;28;20027;-69
2023/02/01 03:21:28;;;;;;;35.97;3.63;;;7.40;99.60;;;;;;4993506;28;20097;-69
2023/02/01 03:23:59;;;;;;;25.20;3.95;;;7.30;99.50;;;;;;4993161;28;20030;-69
2023/02/01 03:26:28;;;;;;;26.55;3.33;;;7.40;99.50;;;;;;4992877;28;20034;-68
2023/02/01 03:29:05;;;;;;;20.00;3.38;;;7.30;99.50;;;;;;4992881;28;20096;-69
2023/02/01 03:31:31;;;;;;;25.65;3.13;;;7.30;99.90;;;;;;4993008;28;20353;-68
2023/02/01 03:33:57;;;;;;;24.35;3.45;;;7.40;99.60;;;;;;4992712;28;20030;-68
2023/02/01 03:36:45;;;;;;;27.63;3.90;;;7.30;99.70;;;;;;4993273;28;20086;-68
2023/02/01 03:39:25;;;;;;;24.77;3.83;;;7.30;99.70;;;;;;4992784;28;20364;-69
2023/02/01 03:41:55;;;;;;;25.10;3.47;;;7.20;99.90;;;;;;4992928;28;20031;-68
2023/02/01 03:44:46;;;;;;;20.73;2.80;;;7.20;99.90;;;;;;4992980;28;20344;-69
2023/02/01 03:47:21;;;;;;;25.73;3.50;;;7.30;99.90;;;;;;4992504;28;20081;-68
2023/02/01 03:49:52;;;;;;;30.48;4.07;;;7.30;99.90;;;;;;4992514;28;20045;-68
2023/02/01 03:52:42;;;;;;;18.40;3.13;;;7.20;99.90;;;;;;4992680;28;20027;-68
2023/02/01 03:55:08;;;;;;;25.13;3.97;;;7.20;99.90;;;;;;4991446;28;20535;-69
2023/02/01 03:57:39;;;;;;;18.02;2.67;;;7.20;99.90;;;;;;4992910;28;20030;-69
2023/02/01 04:00:25;;;;;;;21.20;3.03;;;7.20;99.90;;;;;;4992395;28;20035;-68
2023/02/01 04:02:52;;;;;;;20.70;3.55;;;7.30;99.90;;;;;;4990910;28;20141;-69
2023/02/01 04:05:17;;;;;;;20.83;4.65;;;7.20;99.90;;;;;;4992330;28;20038;-70
2023/02/01 04:07:43;;;;;;;23.13;3.55;;;7.20;99.90;;;;;;4992198;28;20429;-70
2023/02/01 04:10:10;;;;;;;24.48;3.85;;;7.20;99.90;;;;;;4992358;28;20035;-67
2023/02/01 04:12:36;;;;;;;30.48;3.47;;;7.30;99.90;;;;;;4992549;28;20026;-69
2023/02/01 04:15:03;;;;;;;25.80;3.67;;;7.20;99.90;;;;;;4991095;28;20034;-69
2023/02/01 04:17:29;;;;;;;17.30;3.10;;;7.30;99.90;;;;;;4992119;28;20113;-68
2023/02/01 04:19:55;;;;;;;18.33;3.03;;;7.30;99.90;;;;;;4992073;28;20038;-68
2023/02/01 04:22:20;;;;;;;27.35;3.70;;;7.40;99.90;;;;;;4992164;28;20033;-70
2023/02/01 04:24:46;;;;;;;21.27;2.90;;;7.40;99.90;;;;;;4992392;28;20103;-68
2023/02/01 04:27:12;;;;;;;23.83;3.05;;;7.40;99.90;;;;;;4992046;28;20101;-68
2023/02/01 04:29:38;;;;;;;20.98;2.88;;;7.20;99.90;;;;;;4992032;28;20501;-69
2023/02/01 04:32:04;;;;;;;28.35;3.65;;;7.20;99.90;;;;;;4991861;28;20065;-68
2023/02/01 04:34:30;;;;;;;23.23;3.30;;;7.20;99.90;;;;;;4991843;28;20472;-68
2023/02/01 04:36:55;;;;;;;23.75;3.75;;;7.20;99.90;;;;;;4991725;28;20417;-70
2023/02/01 04:39:21;;;;;;;18.17;3.13;;;7.20;99.90;;;;;;4992165;28;20014;-68
2023/02/01 04:41:47;;;;;;;16.77;2.95;;;7.20;99.90;;;;;;4991883;28;20042;-69
2023/02/01 04:44:17;;;;;;;29.15;3.35;;;7.30;99.90;;;;;;4991973;28;20042;-69
2023/02/01 04:46:43;;;;;;;23.42;3.25;;;7.30;99.90;;;;;;4991553;28;20458;-69
2023/02/01 04:49:10;;;;;;;24.25;3.42;;;7.40;99.90;;;;;;4991464;28;20132;-69
2023/02/01 04:51:36;;;;;;;27.25;3.88;;;7.40;99.90;;;;;;4990908;28;20338;-70
2023/02/01 04:54:02;;;;;;;22.52;3.42;;;7.30;99.90;;;;;;4991860;28;20281;-67
2023/02/01 04:56:27;;;;;;;20.95;3.47;;;7.30;99.90;;;;;;4990395;28;20049;-70
2023/02/01 04:58:53;;;;;;;29.30;3.65;;;7.20;99.90;;;;;;4991440;28;20038;-68
2023/02/01 05:01:19;;;;;;;29.83;4.03;;;7.20;99.90;;;;;;4991263;28;20027;-68
2023/02/01 05:03:44;;;;;;;22.48;3.10;;;7.20;99.90;;;;;;4991824;28;20037;-68
2023/02/01 05:06:10;;;;;;;14.57;3.03;;;7.00;99.90;;;;;;4991304;28;20617;-69
2023/02/01 05:08:36;;;;;;;27.38;3.47;;;7.10;99.90;;;;;;4991136;28;20034;-70
2023/02/01 05:11:03;;;;;;;31.10;3.70;;;7.20;99.90;;;;;;4991206;28;20041;-68
2023/02/01 05:16:14;;;;;;;20.92;4.00;;;7.10;99.90;;;;;;4991263;28;20044;-69
2023/02/01 05:18:39;;;;;;;16.42;3.03;;;7.10;99.90;;;;;;4991822;28;20034;-70
2023/02/01 05:21:05;;;;;;;25.98;3.53;;;7.00;99.90;;;;;;4991397;28;20118;-69
2023/02/01 05:23:31;;;;;;;24.38;3.72;;;7.00;99.90;;;;;;4991173;28;20026;-68
2023/02/01 05:26:01;;;;;;;15.82;3.42;;;7.00;99.90;;;;;;4991251;28;20086;-69
2023/02/01 05:28:27;;;;;;;20.75;3.47;;;6.90;99.90;;;;;;4990863;28;20485;-68
2023/02/01 05:30:53;;;;;;;18.52;3.17;;;7.00;99.90;;;;;;4991137;28;20073;-68
2023/02/01 05:33:19;;;;;;;25.20;3.85;;;7.10;99.90;;;;;;4991351;28;20050;-69
2023/02/01 05:35:44;;;;;;;15.45;3.53;;;7.00;99.90;;;;;;4990944;28;20073;-69
2023/02/01 05:38:10;;;;;;;19.63;3.25;;;7.10;99.90;;;;;;4990617;28;20539;-68
2023/02/01 05:40:36;;;;;;;18.98;3.13;;;7.10;99.90;;;;;;4991041;28;20038;-69
2023/02/01 05:43:01;;;;;;;18.65;3.58;;;7.10;99.90;;;;;;4990759;28;20038;-69
2023/02/01 05:45:27;;;;;;;25.58;3.40;;;7.00;99.90;;;;;;4991450;28;20033;-68
2023/02/01 05:47:53;;;;;;;20.20;3.60;;;7.00;99.90;;;;;;4989556;28;20066;-68
2023/02/01 05:50:18;;;;;;;23.63;3.85;;;7.00;99.90;;;;;;4989712;28;20338;-68
2023/02/01 05:52:44;;;;;;;18.58;3.30;;;7.10;99.90;;;;;;4989626;28;20444;-68
2023/02/01 05:55:09;;;;;;;21.08;3.33;;;7.10;99.90;;;;;;4990907;28;20038;-68
2023/02/01 05:57:35;;;;;;;20.33;3.55;;;7.10;99.90;;;;;;4991105;28;20030;-68
2023/02/01 06:00:01;;;;;;;24.65;3.25;;;7.00;99.90;;;;;;4990966;28;20030;-69
2023/02/01 06:02:27;;;;;;;18.48;3.47;;;7.10;99.90;;;;;;4990766;28;20042;-70
2023/02/01 06:04:52;;;;;;;16.02;3.35;;;7.00;99.90;;;;;;4990555;28;20038;-69
2023/02/01 06:07:18;;;;;;;22.63;3.40;;;7.00;99.90;;;;;;4990623;28;20034;-69
2023/02/01 06:09:44;;;;;;;17.15;2.72;;;7.00;99.90;;;;;;4990833;28;20026;-69
2023/02/01 06:12:09;;;;;;;16.75;2.85;;;7.20;99.90;;;;;;4990489;28;20053;-69
2023/02/01 06:14:36;;;;;;;20.83;2.80;;;7.10;99.90;;;;;;4990567;28;20042;-68
2023/02/01 06:17:02;;;;;;;16.60;3.93;;;7.20;99.90;;;;;;4990492;28;20126;-70
2023/02/01 06:19:28;;;;;;;24.05;3.42;;;7.20;99.90;;;;;;4990559;28;20113;-68
2023/02/01 06:21:54;;;;;;;22.52;5.38;;;7.10;99.90;;;;;;4990451;28;20410;-67
2023/02/01 06:24:20;;;;;;;20.42;3.70;;;7.10;99.90;;;;;;4991108;28;20026;-69
2023/02/01 06:26:45;;;;;;;18.67;2.92;;;7.10;99.90;;;;;;4994202;28;20117;-69
2023/02/01 06:29:11;;;;;;;14.68;2.80;;;7.10;99.90;;;;;;4994176;28;20058;-69
2023/02/01 06:31:37;;;;;;;12.90;3.03;;;7.20;99.90;;;;;;5010935;28;20448;-68
2023/02/01 06:34:02;;;;;;;13.23;3.22;;;7.10;99.90;;;;;;5013912;28;20132;-69
2023/02/01 06:36:28;;;;;;;15.63;2.97;;;7.10;99.90;;;;;;5013302;28;20336;-69
2023/02/01 06:38:56;;;;;;;11.48;2.70;;;7.10;99.90;;;;;;5013826;28;20077;-69
2023/02/01 06:41:23;;;;;;;14.93;2.90;;;7.20;99.90;;;;;;5012791;28;20486;-69
2023/02/01 06:43:48;;;;;;;18.80;2.65;;;7.30;99.90;;;;;;5012580;28;20030;-69
2023/02/01 06:46:14;;;;;;;12.68;2.42;;;7.20;99.90;;;;;;5001676;28;20027;-70
2023/02/01 06:48:40;;;;;;;20.77;3.10;;;7.20;99.90;;;;;;4994363;28;20129;-70
2023/02/01 06:51:15;;;;;;;11.35;2.70;;;7.20;99.90;;;;;;4994128;28;20042;-69
2023/02/01 06:53:41;;;;;;;14.48;2.28;;;7.20;99.90;;;;;;4994040;28;20030;-69
2023/02/01 06:56:09;;;;;;;9.52;2.60;;;7.10;99.90;;;;;;4994068;28;20045;-71
2023/02/01 06:58:34;;;;;;;17.35;3.13;;;7.20;99.90;;;;;;4994178;28;20449;-70
2023/02/01 07:01:07;;;;;;;12.23;2.75;;;7.10;99.90;;;;;;4993996;28;20023;-72
2023/02/01 07:03:33;;;;;;;10.25;2.40;;;7.00;99.90;;;;;;4994312;28;20018;-71
2023/02/01 07:05:58;;;;;;;17.75;3.90;;;7.00;99.90;;;;;;4993848;28;20085;-70
2023/02/01 07:08:26;;;;;;;12.45;2.58;;;7.10;99.90;;;;;;4993466;28;20117;-69
2023/02/01 07:10:52;;;;;;;13.50;2.80;;;7.10;99.90;;;;;;4993652;28;20034;-70
2023/02/01 07:13:17;;;;;;;12.32;2.22;;;7.20;99.90;;;;;;4993715;28;20038;-71
2023/02/01 07:15:43;;;;;;;17.27;3.13;;;7.20;99.90;;;;;;4994282;28;20022;-70
2023/02/01 07:18:09;;;;;;;19.70;2.80;;;7.20;99.90;;;;;;4993659;28;20337;-74
2023/02/01 07:20:34;;;;;;;19.48;3.65;;;7.20;99.90;;;;;;4993835;28;20026;-77
2023/02/01 07:23:00;;;;;;;23.70;3.53;;;7.10;99.90;;;;;;4993933;28;20042;-74
2023/02/01 07:25:25;;;;;;;22.30;3.85;;;7.20;99.90;;;;;;4993604;28;20034;-73
2023/02/01 07:27:51;;;;;;;18.33;2.95;;;7.30;99.90;;;;;;4991944;28;20042;-72
2023/02/01 07:30:17;;;;;;;24.88;4.03;;;7.20;99.90;;;;;;4994516;28;20030;-77
2023/02/01 07:32:43;;;;;;;22.38;3.17;;;7.20;99.90;;;;;;4993690;28;20022;-76
2023/02/01 07:35:09;;;;;;;15.32;3.17;;;7.20;99.90;;;;;;4993549;28;20449;-77
2023/02/01 07:37:34;;;;;;;21.38;3.33;;;7.20;99.90;;;;;;4992837;28;20034;-74
2023/02/01 07:40:00;;;;;;;22.48;3.65;;;7.30;99.90;;;;;;4992365;28;20035;-72
2023/02/01 07:42:25;;;;;;;20.52;3.70;;;7.20;99.90;;;;;;4993867;28;20090;-72
2023/02/01 07:44:51;;;;;;;19.75;3.85;;;7.30;99.90;;;;;;4993112;28;20130;-71
2023/02/01 07:47:17;;;;;;;33.42;4.22;;;7.20;99.90;;;;;;4993060;28;20106;-72
2023/02/01 07:49:42;;;;;;;24.88;3.25;;;7.30;99.90;;;;;;4993310;28;20042;-72
2023/02/01 07:52:08;;;;;;;29.45;4.20;;;7.30;99.90;;;;;;4993213;28;20038;-72
2023/02/01 07:54:33;;;;;;;18.67;3.47;;;7.40;99.90;;;;;;4993485;28;20073;-73
2023/02/01 07:56:59;;;;;;;15.73;3.47;;;7.40;99.90;;;;;;4993350;28;20433;-72
2023/02/01 07:59:25;;;;;;;33.03;3.17;;;7.40;99.90;;;;;;4993022;28;20528;-73
2023/02/01 08:01:50;;;;;;;24.75;3.30;;;7.40;99.90;;;;;;4992885;28;20030;-73
2023/02/01 08:04:16;;;;;;;23.02;3.33;;;7.50;99.90;;;;;;4993223;28;20124;-73
2023/02/01 08:06:41;;;;;;;20.52;3.33;;;7.50;99.90;;;;;;4993316;28;20037;-74
2023/02/01 08:09:09;;;;;;;26.15;3.35;;;7.50;99.90;;;;;;4992075;28;20026;-72
2023/02/01 08:11:37;;;;;;;23.05;3.15;;;7.50;99.90;;;;;;4992978;28;20560;-74
2023/02/01 08:14:04;;;;;;;15.23;3.22;;;7.40;99.90;;;;;;4992725;28;20492;-73
2023/02/01 08:16:30;;;;;;;19.60;2.83;;;7.40;99.90;;;;;;4993103;28;20030;-73
2023/02/01 08:18:56;;;;;;;18.92;3.08;;;7.60;99.90;;;;;;4992677;28;20037;-72
2023/02/01 08:21:25;;;;;;;20.60;3.45;;;7.60;99.90;;;;;;4992128;28;20420;-72
2023/02/01 08:23:51;;;;;;;20.73;3.80;;;7.60;99.90;;;;;;4992716;28;20061;-72
2023/02/01 08:26:22;;;;;;;25.52;4.60;;;7.50;99.90;;;;;;4992585;28;20433;-74
2023/02/01 08:28:54;;;;;;;24.83;3.47;;;7.50;99.90;;;;;;4992678;28;20047;-72
2023/02/01 08:31:22;;;;;;;13.88;2.88;;;7.50;99.90;;;;;;4992566;28;20118;-70
2023/02/01 08:33:53;;;;;;;19.38;3.40;;;7.60;99.90;;;;;;4992836;28;20054;-73
2023/02/01 08:36:20;;;;;;;20.30;3.28;;;7.70;99.90;;;;;;4991422;28;20108;-70
2023/02/01 08:38:45;;;;;;;23.98;3.63;;;7.60;99.90;;;;;;4992235;28;20034;-71
2023/02/01 08:41:14;;;;;;;16.27;3.30;;;7.60;99.90;;;;;;4991985;28;20460;-73
2023/02/01 08:43:41;;;;;;;21.17;3.80;;;7.50;99.90;;;;;;4992113;28;20469;-72
2023/02/01 08:46:08;;;;;;;16.67;2.92;;;7.60;99.90;;;;;;4990950;28;20037;-74
2023/02/01 08:48:34;;;;;;;19.00;3.83;;;7.60;99.90;;;;;;4992440;28;20117;-74
2023/02/01 08:51:04;;;;;;;18.98;2.83;;;7.60;99.90;;;;;;4992328;28;20042;-74
2023/02/01 08:53:30;;;;;;;21.08;2.78;;;7.70;99.90;;;;;;4992061;28;20041;-73
2023/02/01 08:55:56;;;;;;;27.40;3.92;;;7.80;99.90;;;;;;4990942;28;20034;-74
2023/02/01 08:58:21;;;;;;;16.10;3.42;;;7.80;99.90;;;;;;4991873;28;20236;-72
2023/02/01 09:00:48;;;;;;;29.67;3.53;;;7.70;99.90;;;;;;4992712;28;20026;-77
2023/02/01 09:03:14;;;;;;;20.92;2.97;;;7.70;99.90;;;;;;4992047;28;20096;-73
2023/02/01 09:05:40;;;;;;;14.93;2.95;;;7.80;99.90;;;;;;4991925;28;20048;-74
2023/02/01 09:08:06;;;;;;;14.18;2.70;;;7.90;99.90;;;;;;4990663;28;20035;-75
2023/02/01 09:10:32;;;;;;;14.25;2.38;;;7.90;99.90;;;;;;4987567;28;20054;-72
2023/02/01 09:12:58;;;;;;;17.00;2.60;;;8.00;99.90;;;;;;4993050;28;20030;-73
2023/02/01 09:15:23;;;;;;;20.45;3.22;;;8.00;99.90;;;;;;4993211;28;20030;-74
2023/02/01 09:17:49;;;;;;;15.05;2.58;;;8.10;99.90;;;;;;4992757;28;20030;-74
2023/02/01 09:20:15;;;;;;;18.15;3.35;;;8.10;99.90;;;;;;4992693;28;20042;-74
2023/02/01 09:22:41;;;;;;;21.35;3.05;;;8.20;99.90;;;;;;4992997;28;20065;-76
2023/02/01 09:25:07;;;;;;;14.90;2.65;;;8.20;99.90;;;;;;4992490;28;20058;-75
2023/02/01 09:27:34;;;;;;;24.35;4.25;;;8.30;99.90;;;;;;4992801;28;20112;-77
2023/02/01 09:30:01;;;;;;;21.73;4.43;;;8.30;99.90;;;;;;4992837;28;20030;-74
2023/02/01 09:32:28;;;;;;;13.63;2.22;;;8.40;99.90;;;;;;4992719;28;20386;-77
2023/02/01 09:34:54;;;;;;;13.02;2.67;;;8.40;99.90;;;;;;4992879;28;20086;-74
2023/02/01 09:37:20;;;;;;;18.27;2.65;;;8.40;99.90;;;;;;4992765;28;20109;-72
2023/02/01 09:39:45;;;;;;;21.50;3.00;;;8.40;99.90;;;;;;5008121;28;20026;-73
2023/02/01 09:42:32;;;;;;;10.85;2.20;;;8.40;99.90;;;;;;4991865;28;20108;-76
2023/02/01 09:45:24;;;;;;;17.88;2.17;;;8.40;99.90;;;;;;5007699;28;20046;-73
2023/02/01 09:48:05;;;;;;;13.18;2.15;;;8.50;99.90;;;;;;4992300;28;20441;-72
2023/02/01 09:50:37;;;;;;;22.55;2.40;;;8.40;99.90;;;;;;4991225;28;20033;-74
2023/02/01 09:53:06;;;;;;;19.48;2.72;;;8.40;99.90;;;;;;5007667;28;20477;-73
2023/02/01 09:55:50;;;;;;;22.83;3.35;;;8.50;99.90;;;;;;4992215;28;20035;-72
2023/02/01 09:58:42;;;;;;;14.38;2.42;;;8.50;99.90;;;;;;4992321;28;20172;-72
2023/02/01 10:01:24;;;;;;;15.25;2.65;;;8.40;99.90;;;;;;4995805;28;20441;-76
2023/02/01 10:03:56;;;;;;;19.70;3.20;;;8.50;99.90;;;;;;4996673;28;20416;-72
2023/02/01 10:06:30;;;;;;;13.88;2.20;;;8.50;99.90;;;;;;4996948;28;20015;-74
2023/02/01 10:09:04;;;;;;;20.73;2.95;;;8.50;99.90;;;;;;4996069;28;20109;-76
2023/02/01 10:11:48;;;;;;;18.45;2.67;;;8.50;99.90;;;;;;4996212;28;20045;-76
2023/02/01 10:14:16;;;;;;;11.57;1.95;;;8.50;99.90;;;;;;5011335;28;20037;-74
2023/02/01 10:17:04;;;;;;;16.58;2.42;;;8.40;99.90;;;;;;4995242;28;20238;-76
2023/02/01 10:19:53;;;;;;;11.73;2.35;;;8.50;99.90;;;;;;4995093;28;20031;-76
2023/02/01 10:22:39;;;;;;;13.15;2.40;;;8.60;99.90;;;;;;4995123;28;20030;-72
2023/02/01 10:25:21;;;;;;;20.02;3.47;;;8.60;99.70;;;;;;4994874;28;20081;-73
2023/02/01 10:27:48;;;;;;;15.98;3.55;;;8.60;99.90;;;;;;5006966;28;20135;-74
2023/02/01 10:30:24;;;;;;;19.85;2.63;;;8.70;99.90;;;;;;5012307;28;20121;-75
2023/02/01 10:32:56;;;;;;;23.98;3.20;;;8.70;99.80;;;;;;5015242;28;20121;-75
2023/02/01 10:35:27;;;;;;;17.85;3.10;;;8.80;99.70;;;;;;5015293;28;20472;-75
2023/02/01 10:37:53;;;;;;;26.00;3.88;;;8.80;99.60;;;;;;5014953;28;20034;-74
2023/02/01 10:40:25;;;;;;;18.15;3.20;;;8.80;99.80;;;;;;5015000;28;20096;-73
2023/02/01 10:42:57;;;;;;;21.80;3.53;;;8.70;99.90;;;;;;5015119;28;20097;-73
2023/02/01 10:45:26;;;;;;;22.73;2.70;;;8.80;99.90;;;;;;5015526;28;20030;-77
2023/02/01 10:47:55;;;;;;;15.13;2.50;;;8.80;99.60;;;;;;5013927;28;20033;-77
2023/02/01 10:50:36;;;;;;;17.38;3.03;;;8.80;99.80;;;;;;5015132;28;20459;-75
2023/02/01 10:53:23;;;;;;;29.40;7.15;;;8.80;99.40;;;;;;5014995;28;20034;-77
2023/02/01 10:55:50;;;;;;;21.97;5.43;;;8.80;99.50;;;;;;5015242;28;20375;-76
2023/02/01 10:58:19;;;;;;;21.63;4.43;;;8.70;99.50;;;;;;5013766;28;20251;-76
2023/02/01 11:01:02;;;;;;;17.90;3.15;;;8.80;99.50;;;;;;5015509;28;20030;-76
2023/02/01 11:03:34;;;;;;;22.88;3.00;;;8.60;99.20;;;;;;5014936;28;20064;-76
2023/02/01 11:06:02;;;;;;;22.58;4.53;;;8.70;99.30;;;;;;5014952;28;20037;-77
2023/02/01 11:08:28;;;;;;;17.08;2.47;;;8.70;99.40;;;;;;5013461;28;20455;-76
2023/02/01 11:11:00;;;;;;;19.83;3.03;;;8.70;99.40;;;;;;5014104;28;20196;-76
2023/02/01 11:13:30;;;;;;;16.23;2.30;;;8.90;99.40;;;;;;5014295;28;20034;-73
2023/02/01 11:15:56;;;;;;;15.60;2.47;;;8.90;99.30;;;;;;5014305;28;20063;-76
2023/02/01 11:18:28;;;;;;;18.67;2.70;;;8.80;99.20;;;;;;5015190;28;20096;-73
2023/02/01 11:20:55;;;;;;;19.70;2.55;;;8.70;99.00;;;;;;5013226;28;20050;-76
2023/02/01 11:23:29;;;;;;;18.73;3.33;;;8.80;98.90;;;;;;5014335;28;20030;-74
2023/02/01 11:26:00;;;;;;;19.52;2.40;;;8.70;98.90;;;;;;5012836;28;20038;-75
2023/02/01 11:28:31;;;;;;;21.52;3.10;;;8.60;99.10;;;;;;5019796;28;20357;-73
2023/02/01 11:31:01;;;;;;;14.52;2.92;;;8.70;99.00;;;;;;5014259;28;20026;-73
2023/02/01 11:33:34;;;;;;;13.57;2.60;;;8.70;98.70;;;;;;5013660;28;20124;-76
2023/02/01 11:36:07;;;;;;;16.48;2.60;;;8.70;98.90;;;;;;5013490;28;20464;-76
2023/02/01 11:38:34;;;;;;;12.60;2.30;;;8.80;98.90;;;;;;5014214;28;20038;-74
2023/02/01 11:41:14;;;;;;;14.20;2.92;;;8.80;98.90;;;;;;5012879;28;20124;-74
2023/02/01 11:43:58;;;;;;;12.20;2.40;;;8.80;98.60;;;;;;5013596;28;20061;-74
2023/02/01 11:46:33;;;;;;;16.75;2.70;;;9.00;98.60;;;;;;5012748;28;20030;-74
2023/02/01 11:49:26;;;;;;;20.42;3.10;;;9.10;98.50;;;;;;5013879;28;20038;-76
2023/02/01 11:52:26;;;;;;;21.30;3.22;;;9.10;98.80;;;;;;5013774;28;20464;-75
2023/02/01 11:55:07;;;;;;;20.25;3.25;;;9.10;98.70;;;;;;5013455;28;20018;-73
2023/02/01 11:57:41;;;;;;;16.85;2.85;;;9.10;98.90;;;;;;5013711;28;20029;-73
2023/02/01 12:00:33;;;;;;;17.80;2.75;;;9.10;98.60;;;;;;5013526;28;20041;-73
2023/02/01 12:03:23;;;;;;;22.95;3.35;;;9.20;98.60;;;;;;5004959;28;20042;-72
2023/02/01 12:06:24;;;;;;;24.88;2.88;;;9.10;98.50;;;;;;5012354;28;20083;-72
2023/02/01 12:08:53;;;;;;;14.15;3.83;;;9.10;98.60;;;;;;5004403;28;20033;-73
2023/02/01 12:11:35;;;;;;;20.85;2.97;;;9.20;98.40;;;;;;5012788;28;20037;-73
2023/02/01 12:14:27;;;;;;;19.38;3.08;;;9.30;98.10;;;;;;5012400;28;20056;-73
2023/02/01 12:17:32;;;;;;;12.73;2.58;;;9.20;98.00;;;;;;5012304;28;20022;-73
2023/02/01 12:20:11;;;;;;;22.20;3.15;;;9.10;97.70;;;;;;5011277;28;20037;-73
2023/02/01 12:23:07;;;;;;;12.70;2.08;;;9.10;97.80;;;;;;5012042;28;20034;-73
2023/02/01 12:25:43;;;;;;;16.15;2.88;;;9.20;98.00;;;;;;5012046;28;20527;-72
2023/02/01 12:28:38;;;;;;;15.38;2.50;;;9.20;98.00;;;;;;5011716;28;20139;-73
2023/02/01 12:31:23;;;;;;;11.93;2.08;;;9.30;98.60;;;;;;5010757;28;20440;-73
2023/02/01 12:34:23;;;;;;;18.73;2.70;;;9.10;99.10;;;;;;5011781;28;20433;-73
2023/02/01 12:37:18;;;;;;;15.35;3.03;;;8.90;99.60;;;;;;5012209;28;20087;-71
2023/02/01 12:39:52;;;;;;;16.58;2.45;;;8.90;99.80;;;;;;5009476;28;20073;-73
2023/02/01 12:42:22;;;;;;;11.85;2.08;;;8.80;99.90;;;;;;5011888;28;20045;-72
2023/02/01 12:45:13;;;;;;;12.15;1.92;;;8.70;99.90;;;;;;5011663;28;20160;-73
2023/02/01 12:47:45;;;;;;;12.73;2.08;;;8.60;99.90;;;;;;5011779;28;20367;-71
2023/02/01 12:50:33;;;;;;;10.38;2.55;;;8.40;99.90;;;;;;5011538;28;20040;-73
2023/02/01 12:53:24;;;;;;;14.85;2.38;;;8.50;99.90;;;;;;5011655;28;20120;-73
2023/02/01 12:55:54;;;;;;;10.50;2.95;;;8.30;99.90;;;;;;5001912;28;20030;-72
2023/02/01 12:58:31;;;;;;;19.77;4.95;;;8.40;99.90;;;;;;5011675;28;20030;-72
2023/02/01 13:01:05;;;;;;;12.52;3.08;;;8.50;99.90;;;;;;5011368;28;20063;-72
2023/02/01 13:03:37;;;;;;;10.10;2.00;;;8.50;99.90;;;;;;5010767;28;20072;-73
2023/02/01 13:06:04;;;;;;;12.55;2.17;;;8.30;99.90;;;;;;5011464;28;20033;-73
2023/02/01 13:09:06;;;;;;;7.90;1.80;;;8.30;99.90;;;;;;5009741;28;20104;-73
2023/02/01 13:11:36;;;;;;;12.88;2.40;;;8.20;99.90;;;;;;5009907;28;20046;-72
2023/02/01 13:14:31;;;;;;;10.68;1.98;;;8.10;99.90;;;;;;5011222;28;20030;-72
2023/02/01 13:17:27;;;;;;;14.13;2.10;;;8.10;99.90;;;;;;5011418;28;20450;-74
2023/02/01 13:19:56;;;;;;;11.43;2.75;;;8.00;99.90;;;;;;5010521;28;20026;-73
2023/02/01 13:22:29;;;;;;;11.85;1.60;;;7.90;99.90;;;;;;5011516;28;20118;-73
2023/02/01 13:25:04;;;;;;;6.95;1.75;;;7.90;99.90;;;;;;5010097;28;20030;-72
2023/02/01 13:27:32;;;;;;;6.88;1.42;;;8.00;99.90;;;;;;5011245;28;20057;-73
2023/02/01 13:30:06;;;;;;;7.45;1.63;;;7.90;99.90;;;;;;5011175;28;20030;-73